Aviation Digital Data Service (ADDS)

Output produced by METARs form (2256 UTC 21 November 2017)
found at http://aviationweather.gov/adds/metars/
 
KBPT 212112Z 2121/2218 VRB06KT P6SM VCTS SCT015CB BKN025 
     TEMPO 2121/2122 1SM -TSRA BKN015CB 
     FM220000 04008KT P6SM BKN035 
     FM220800 02014KT P6SM SCT035